createdAt,value
2017-10-15T00:02:22.840Z,9.77
2017-10-15T00:04:51.745Z,10.37
2017-10-15T00:07:20.683Z,11.53
2017-10-15T00:09:49.618Z,10.93
2017-10-15T00:12:18.500Z,10.43
2017-10-15T00:14:47.550Z,11.87
2017-10-15T00:17:16.461Z,10.90
2017-10-15T00:19:45.340Z,12.53
2017-10-15T00:22:14.211Z,11.10
2017-10-15T00:24:43.068Z,11.33
2017-10-15T00:27:11.947Z,12.30
2017-10-15T00:29:40.805Z,10.43
2017-10-15T00:32:09.710Z,10.83
2017-10-15T00:34:38.571Z,11.27
2017-10-15T00:37:07.426Z,10.87
2017-10-15T00:39:36.292Z,9.10
2017-10-15T00:42:05.156Z,10.00
2017-10-15T00:44:34.074Z,9.90
2017-10-15T00:47:02.947Z,9.10
2017-10-15T00:49:31.802Z,8.47
2017-10-15T00:52:00.739Z,9.53
2017-10-15T00:54:29.929Z,8.53
2017-10-15T00:56:58.827Z,8.53
2017-10-15T00:59:27.695Z,8.67
2017-10-15T01:01:56.560Z,8.90
2017-10-15T01:04:25.430Z,8.30
2017-10-15T01:06:54.284Z,7.30
2017-10-15T01:09:23.175Z,7.17
2017-10-15T01:11:52.036Z,7.60
2017-10-15T01:14:20.907Z,7.73
2017-10-15T01:16:49.789Z,7.80
2017-10-15T01:19:18.639Z,7.03
2017-10-15T01:21:47.565Z,6.23
2017-10-15T01:24:16.425Z,7.97
2017-10-15T01:26:45.283Z,7.43
2017-10-15T01:29:14.147Z,7.43
2017-10-15T01:31:43.023Z,8.67
2017-10-15T01:34:11.907Z,6.90
2017-10-15T01:36:40.778Z,6.50
2017-10-15T01:39:09.655Z,7.37
2017-10-15T01:41:38.543Z,7.87
2017-10-15T01:44:07.396Z,7.90
2017-10-15T01:46:36.270Z,7.00
2017-10-15T01:49:05.142Z,5.97
2017-10-15T01:51:34.347Z,7.20
2017-10-15T01:54:03.214Z,6.80
2017-10-15T01:56:32.079Z,7.23
2017-10-15T01:59:00.951Z,7.70
2017-10-15T02:01:29.800Z,6.60
2017-10-15T02:03:58.706Z,7.97
2017-10-15T02:06:27.561Z,6.97
2017-10-15T02:08:56.429Z,6.93
2017-10-15T02:11:25.306Z,8.13
2017-10-15T02:13:54.181Z,8.00
2017-10-15T02:16:23.057Z,7.10
2017-10-15T02:18:51.913Z,7.20
2017-10-15T02:21:20.789Z,7.50
2017-10-15T02:23:49.676Z,7.17
2017-10-15T02:26:18.539Z,7.00
2017-10-15T02:28:47.423Z,7.40
2017-10-15T02:31:16.297Z,7.40
2017-10-15T02:33:45.155Z,6.40
2017-10-15T02:36:14.042Z,6.93
2017-10-15T02:38:42.894Z,6.43
2017-10-15T02:41:11.767Z,7.10
2017-10-15T02:43:40.611Z,6.30
2017-10-15T02:46:09.510Z,6.33
2017-10-15T02:48:38.386Z,6.67
2017-10-15T02:51:07.244Z,6.50
2017-10-15T02:53:36.122Z,6.70
2017-10-15T02:56:04.994Z,6.73
2017-10-15T02:58:34.130Z,6.97
2017-10-15T03:01:02.974Z,7.37
2017-10-15T03:03:31.851Z,6.93
2017-10-15T03:06:00.727Z,7.13
2017-10-15T03:08:29.582Z,6.30
2017-10-15T03:10:58.462Z,6.63
2017-10-15T03:13:27.330Z,6.70
2017-10-15T03:15:56.369Z,6.83
2017-10-15T03:18:25.235Z,7.17
2017-10-15T03:20:54.094Z,6.77
2017-10-15T03:23:22.975Z,7.40
2017-10-15T03:25:51.853Z,6.80
2017-10-15T03:28:21.680Z,6.60
2017-10-15T03:30:50.537Z,5.70
2017-10-15T03:33:19.471Z,6.83
2017-10-15T03:35:48.336Z,6.23
2017-10-15T03:38:17.194Z,7.33
2017-10-15T03:40:46.086Z,6.00
2017-10-15T03:43:14.947Z,6.23
2017-10-15T03:45:43.820Z,6.90
2017-10-15T03:48:12.693Z,6.63
2017-10-15T03:50:41.543Z,6.30
2017-10-15T03:53:10.423Z,7.13
2017-10-15T03:55:39.311Z,6.57
2017-10-15T03:58:08.210Z,7.10
2017-10-15T04:00:37.087Z,6.53
2017-10-15T04:03:05.944Z,6.40
2017-10-15T04:05:34.806Z,6.50
2017-10-15T04:08:03.669Z,6.40
2017-10-15T04:10:32.763Z,6.00
2017-10-15T04:13:01.622Z,6.67
2017-10-15T04:15:30.498Z,6.73
2017-10-15T04:17:59.371Z,5.53
2017-10-15T04:20:28.238Z,5.93
2017-10-15T04:22:57.150Z,6.53
2017-10-15T04:25:26.009Z,5.40
2017-10-15T04:27:54.878Z,4.90
2017-10-15T04:30:23.744Z,5.10
2017-10-15T04:32:52.655Z,5.30
2017-10-15T04:35:21.548Z,5.43
2017-10-15T04:37:50.394Z,5.60
2017-10-15T04:40:19.253Z,5.40
2017-10-15T04:42:48.142Z,5.10
2017-10-15T04:45:17.040Z,5.70
2017-10-15T04:50:21.404Z,5.13
2017-10-15T04:52:50.324Z,4.83
2017-10-15T04:55:19.174Z,5.10
2017-10-15T04:57:48.026Z,4.60
2017-10-15T05:00:16.906Z,5.90
2017-10-15T05:02:45.809Z,4.97
2017-10-15T05:05:14.664Z,4.93
2017-10-15T05:07:43.527Z,4.60
2017-10-15T05:10:12.378Z,4.47
2017-10-15T05:12:41.269Z,4.40
2017-10-15T05:15:10.163Z,4.53
2017-10-15T05:17:39.023Z,4.83
2017-10-15T05:20:07.916Z,4.60
2017-10-15T05:22:36.766Z,5.30
2017-10-15T05:25:05.676Z,3.90
2017-10-15T05:27:34.527Z,4.90
2017-10-15T05:30:03.391Z,5.00
2017-10-15T05:32:32.257Z,5.20
2017-10-15T05:35:01.131Z,5.00
2017-10-15T05:37:30.023Z,5.20
2017-10-15T05:39:58.885Z,4.60
2017-10-15T05:42:27.736Z,5.60
2017-10-15T05:44:56.611Z,5.00
2017-10-15T05:47:25.502Z,4.90
2017-10-15T05:49:54.394Z,4.50
2017-10-15T05:52:23.252Z,4.50
2017-10-15T05:54:52.111Z,4.70
2017-10-15T05:57:20.984Z,4.70
2017-10-15T05:59:49.839Z,4.10
2017-10-15T06:02:18.894Z,3.97
2017-10-15T06:04:47.757Z,3.70
2017-10-15T06:07:16.650Z,3.83
2017-10-15T06:09:45.526Z,4.40
2017-10-15T06:12:14.369Z,4.27
2017-10-15T06:14:43.287Z,4.00
2017-10-15T06:17:12.155Z,3.67
2017-10-15T06:19:41.028Z,4.20
2017-10-15T06:22:09.911Z,4.33
2017-10-15T06:24:38.799Z,4.30
2017-10-15T06:27:07.676Z,4.00
2017-10-15T06:29:36.617Z,3.80
2017-10-15T06:32:05.461Z,3.97
2017-10-15T06:34:34.344Z,4.60
2017-10-15T06:37:03.197Z,3.90
2017-10-15T06:39:32.125Z,3.70
2017-10-15T06:42:00.983Z,4.30
2017-10-15T06:44:29.853Z,4.20
2017-10-15T06:46:58.730Z,3.40
2017-10-15T06:49:27.606Z,8.30
2017-10-15T06:51:56.490Z,4.60
2017-10-15T06:54:25.395Z,4.20
2017-10-15T06:56:54.270Z,4.30
2017-10-15T06:59:23.143Z,3.67
2017-10-15T07:01:52.031Z,4.17
2017-10-15T07:04:20.874Z,4.00
2017-10-15T07:06:49.717Z,4.20
2017-10-15T07:09:18.598Z,3.80
2017-10-15T07:11:47.478Z,4.20
2017-10-15T07:14:16.428Z,3.60
2017-10-15T07:16:45.320Z,3.57
2017-10-15T07:19:14.170Z,3.83
2017-10-15T07:21:43.043Z,4.13
2017-10-15T07:24:11.892Z,4.73
2017-10-15T07:26:40.786Z,10.17
2017-10-15T07:29:09.668Z,6.40
2017-10-15T07:31:38.551Z,4.97
2017-10-15T07:34:07.399Z,5.73
2017-10-15T07:36:36.258Z,9.83
2017-10-15T07:39:05.131Z,7.10
2017-10-15T07:41:33.987Z,4.60
2017-10-15T07:44:02.885Z,3.97
2017-10-15T07:46:31.756Z,3.97
2017-10-15T07:49:00.736Z,4.43
2017-10-15T07:51:29.653Z,4.23
2017-10-15T07:53:58.514Z,4.83
2017-10-15T07:56:27.424Z,4.70
2017-10-15T07:58:56.276Z,4.53
2017-10-15T08:01:25.138Z,3.70
2017-10-15T08:03:54.005Z,4.70
2017-10-15T08:06:22.858Z,3.67
2017-10-15T08:08:51.789Z,5.40
2017-10-15T08:11:20.643Z,5.03
2017-10-15T08:13:49.478Z,4.70
2017-10-15T08:16:18.354Z,4.40
2017-10-15T08:18:47.207Z,4.40
2017-10-15T08:21:16.063Z,4.70
2017-10-15T08:23:44.906Z,5.70
2017-10-15T08:26:13.802Z,5.60
2017-10-15T08:28:42.670Z,5.60
2017-10-15T08:31:11.565Z,5.50
2017-10-15T08:33:40.488Z,5.00
2017-10-15T08:36:10.241Z,4.43
2017-10-15T08:38:39.112Z,4.93
2017-10-15T08:41:07.986Z,4.23
2017-10-15T08:43:36.891Z,10.70
2017-10-15T08:46:05.739Z,5.20
2017-10-15T08:48:34.595Z,5.90
2017-10-15T08:51:03.480Z,6.80
2017-10-15T08:53:32.356Z,5.27
2017-10-15T08:56:01.251Z,7.60
2017-10-15T08:58:30.119Z,5.43
2017-10-15T09:00:59.002Z,5.43
2017-10-15T09:03:27.867Z,4.30
2017-10-15T09:05:56.714Z,4.50
2017-10-15T09:08:25.587Z,4.87
2017-10-15T09:10:54.457Z,5.33
2017-10-15T09:13:23.303Z,5.20
2017-10-15T09:15:52.222Z,4.63
2017-10-15T09:18:21.512Z,3.70
2017-10-15T09:20:50.370Z,4.47
2017-10-15T09:23:19.214Z,4.30
2017-10-15T09:25:48.099Z,4.20
2017-10-15T09:28:17.024Z,3.50
2017-10-15T09:30:45.914Z,3.90
2017-10-15T09:33:14.880Z,6.37
2017-10-15T09:35:43.776Z,4.80
2017-10-15T09:38:12.633Z,4.40
2017-10-15T09:40:41.506Z,4.20
2017-10-15T09:43:10.354Z,3.73
2017-10-15T09:45:39.244Z,3.53
2017-10-15T09:48:08.107Z,4.13
2017-10-15T09:50:36.965Z,5.40
2017-10-15T09:53:05.848Z,5.60
2017-10-15T09:55:34.728Z,3.57
2017-10-15T09:58:03.640Z,3.60
2017-10-15T10:00:32.542Z,4.13
2017-10-15T10:03:01.416Z,3.90
2017-10-15T10:05:30.287Z,4.03
2017-10-15T10:07:59.267Z,4.17
2017-10-15T10:10:28.335Z,3.70
2017-10-15T10:12:57.195Z,3.73
2017-10-15T10:15:26.063Z,4.00
2017-10-15T10:17:54.918Z,3.80
2017-10-15T10:20:23.784Z,2.97
2017-10-15T10:22:52.659Z,3.00
2017-10-15T10:25:21.528Z,2.67
2017-10-15T10:27:50.447Z,3.13
2017-10-15T10:30:19.314Z,2.83
2017-10-15T10:32:48.200Z,2.40
2017-10-15T10:35:17.080Z,2.87
2017-10-15T10:37:45.963Z,2.70
2017-10-15T10:40:14.856Z,2.73
2017-10-15T10:42:43.704Z,2.50
2017-10-15T10:45:12.570Z,2.40
2017-10-15T10:47:41.443Z,3.00
2017-10-15T10:50:10.301Z,4.20
2017-10-15T10:52:39.185Z,2.73
2017-10-15T10:55:08.043Z,2.53
2017-10-15T10:57:36.921Z,2.70
2017-10-15T11:00:05.782Z,2.90
2017-10-15T11:02:34.649Z,2.27
2017-10-15T11:05:03.515Z,2.47
2017-10-15T11:07:32.438Z,5.50
2017-10-15T11:10:01.293Z,3.67
2017-10-15T11:12:30.172Z,5.95
2017-10-15T11:14:59.028Z,6.17
2017-10-15T11:17:27.878Z,6.50
2017-10-15T11:19:56.791Z,6.20
2017-10-15T11:22:25.660Z,5.43
2017-10-15T11:24:54.523Z,4.00
2017-10-15T11:27:23.414Z,3.97
2017-10-15T11:29:52.260Z,3.10
2017-10-15T11:32:21.134Z,3.43
2017-10-15T11:34:50.012Z,2.93
2017-10-15T11:37:18.861Z,2.93
2017-10-15T11:39:47.740Z,3.03
2017-10-15T11:42:16.589Z,3.83
2017-10-15T11:44:45.484Z,3.47
2017-10-15T11:47:14.334Z,3.13
2017-10-15T11:49:43.184Z,2.80
2017-10-15T11:52:12.075Z,3.03
2017-10-15T11:54:40.922Z,2.95
2017-10-15T11:57:09.808Z,2.70
2017-10-15T11:59:38.732Z,3.40
2017-10-15T12:02:07.606Z,3.10
2017-10-15T12:04:36.472Z,2.53
2017-10-15T12:07:05.327Z,2.80
2017-10-15T12:09:34.200Z,2.70
2017-10-15T12:12:03.073Z,2.80
2017-10-15T12:14:31.963Z,2.93
2017-10-15T12:17:00.838Z,2.40
2017-10-15T12:19:29.732Z,2.80
2017-10-15T12:21:58.591Z,2.80
2017-10-15T12:24:27.452Z,2.93
2017-10-15T12:26:56.330Z,3.20
2017-10-15T12:29:25.207Z,4.20
2017-10-15T12:31:54.077Z,3.07
2017-10-15T12:34:22.923Z,3.40
2017-10-15T12:36:51.786Z,4.10
2017-10-15T12:39:20.668Z,3.20
2017-10-15T12:41:49.520Z,4.00
2017-10-15T12:44:18.391Z,2.70
2017-10-15T12:46:47.239Z,4.87
2017-10-15T12:49:16.087Z,3.67
2017-10-15T12:51:44.954Z,3.70
2017-10-15T12:54:13.796Z,3.67
2017-10-15T12:56:42.688Z,2.77
2017-10-15T12:59:11.537Z,3.33
2017-10-15T13:01:40.420Z,3.30
2017-10-15T13:04:09.305Z,2.80
2017-10-15T13:06:38.155Z,3.10
2017-10-15T13:09:07.036Z,3.13
2017-10-15T13:11:35.888Z,3.10
2017-10-15T13:14:04.750Z,3.67
2017-10-15T13:16:33.635Z,3.30
2017-10-15T13:19:02.516Z,3.57
2017-10-15T13:21:31.427Z,3.70
2017-10-15T13:24:00.293Z,3.30
2017-10-15T13:26:29.150Z,3.60
2017-10-15T13:28:58.009Z,3.80
2017-10-15T13:31:26.854Z,4.67
2017-10-15T13:33:55.750Z,3.50
2017-10-15T13:36:24.603Z,3.13
2017-10-15T13:38:53.455Z,3.13
2017-10-15T13:41:22.319Z,3.03
2017-10-15T13:43:51.168Z,3.70
2017-10-15T13:46:20.089Z,3.20
2017-10-15T13:48:48.943Z,3.10
2017-10-15T13:51:17.817Z,3.03
2017-10-15T13:53:46.688Z,4.30
2017-10-15T13:56:15.532Z,5.20
2017-10-15T13:58:44.434Z,6.10
2017-10-15T14:01:13.315Z,5.30
2017-10-15T14:03:42.164Z,4.03
2017-10-15T14:06:11.034Z,3.95
2017-10-15T14:08:39.878Z,4.50
2017-10-15T14:11:08.777Z,3.50
2017-10-15T14:13:37.632Z,2.83
2017-10-15T14:16:06.487Z,3.43
2017-10-15T14:18:35.378Z,6.60
2017-10-15T14:21:07.079Z,6.57
2017-10-15T14:23:35.978Z,3.20
2017-10-15T14:26:04.857Z,4.20
2017-10-15T14:28:33.698Z,3.77
2017-10-15T14:31:02.568Z,3.73
2017-10-15T14:33:31.425Z,4.40
2017-10-15T14:36:00.317Z,3.70
2017-10-15T14:38:29.203Z,3.20
2017-10-15T14:40:58.054Z,2.70
2017-10-15T14:43:26.930Z,5.23
2017-10-15T14:45:55.803Z,3.97
2017-10-15T14:48:24.676Z,3.70
2017-10-15T14:50:53.533Z,3.83
2017-10-15T14:53:22.382Z,3.40
2017-10-15T14:55:51.268Z,4.13
2017-10-15T14:58:20.129Z,3.63
2017-10-15T15:00:49.002Z,4.50
2017-10-15T15:03:17.859Z,3.93
2017-10-15T15:05:46.733Z,3.63
2017-10-15T15:08:15.608Z,3.60
2017-10-15T15:10:44.479Z,3.50
2017-10-15T15:13:13.395Z,3.37
2017-10-15T15:15:42.238Z,3.73
2017-10-15T15:18:11.106Z,3.30
2017-10-15T15:20:39.973Z,3.43
2017-10-15T15:23:08.850Z,3.30
2017-10-15T15:25:37.756Z,2.83
2017-10-15T15:28:06.614Z,2.63
2017-10-15T15:30:35.467Z,2.70
2017-10-15T15:33:04.332Z,2.80
2017-10-15T15:35:33.174Z,2.53
2017-10-15T15:38:02.224Z,3.20
2017-10-15T15:40:31.079Z,2.50
2017-10-15T15:43:00.005Z,2.60
2017-10-15T15:45:28.874Z,3.33
2017-10-15T15:47:57.730Z,2.90
2017-10-15T15:50:26.631Z,3.10
2017-10-15T15:52:55.482Z,3.97
2017-10-15T15:55:24.336Z,3.37
2017-10-15T15:57:53.195Z,3.17
2017-10-15T16:00:22.041Z,3.20
2017-10-15T16:02:50.923Z,4.03
2017-10-15T16:05:19.771Z,3.07
2017-10-15T16:07:48.618Z,3.53
2017-10-15T16:10:17.497Z,3.87
2017-10-15T16:12:46.348Z,4.47
2017-10-15T16:15:15.213Z,4.10
2017-10-15T16:17:44.093Z,3.90
2017-10-15T16:20:12.987Z,4.10
2017-10-15T16:22:41.845Z,4.37
2017-10-15T16:25:10.698Z,4.90
2017-10-15T16:27:39.574Z,6.50
2017-10-15T16:30:08.443Z,5.90
2017-10-15T16:32:37.278Z,5.53
2017-10-15T16:35:06.172Z,6.67
2017-10-15T16:37:35.060Z,5.73
2017-10-15T16:40:04.256Z,5.20
2017-10-15T16:42:33.103Z,5.10
2017-10-15T16:45:01.943Z,5.27
2017-10-15T16:47:30.814Z,5.97
2017-10-15T16:49:59.682Z,7.70
2017-10-15T16:52:28.590Z,6.20
2017-10-15T16:54:57.446Z,7.07
2017-10-15T16:57:26.302Z,6.53
2017-10-15T16:59:55.170Z,7.20
2017-10-15T17:02:24.012Z,7.40
2017-10-15T17:04:52.967Z,7.43
2017-10-15T17:07:21.859Z,7.27
2017-10-15T17:09:50.773Z,7.97
2017-10-15T17:12:19.620Z,7.33
2017-10-15T17:14:48.643Z,7.87
2017-10-15T17:17:17.512Z,8.47
2017-10-15T17:19:46.381Z,7.60
2017-10-15T17:22:15.274Z,8.50
2017-10-15T17:24:44.121Z,8.43
2017-10-15T17:27:13.028Z,8.77
2017-10-15T17:29:41.899Z,7.47
2017-10-15T17:32:10.785Z,7.40
2017-10-15T17:34:39.691Z,7.50
2017-10-15T17:37:08.561Z,7.37
2017-10-15T17:39:37.706Z,8.73
2017-10-15T17:42:06.556Z,8.33
2017-10-15T17:44:35.411Z,8.60
2017-10-15T17:47:04.278Z,7.53
2017-10-15T17:49:33.142Z,7.30
2017-10-15T17:52:02.011Z,8.37
2017-10-15T17:54:30.862Z,11.63
2017-10-15T17:56:59.789Z,10.03
2017-10-15T17:59:28.655Z,7.33
2017-10-15T18:02:03.557Z,7.83
2017-10-15T18:04:32.445Z,12.80
2017-10-15T18:07:01.442Z,11.87
2017-10-15T18:09:30.299Z,8.63
2017-10-15T18:11:59.185Z,7.50
2017-10-15T18:14:28.135Z,8.03
2017-10-15T18:16:57.023Z,12.05
2017-10-15T18:19:25.908Z,10.40
2017-10-15T18:21:54.773Z,7.80
2017-10-15T18:24:23.629Z,7.30
2017-10-15T18:26:52.530Z,10.37
2017-10-15T18:29:21.390Z,8.00
2017-10-15T18:31:50.243Z,7.97
2017-10-15T18:34:19.107Z,7.53
2017-10-15T18:36:47.960Z,7.00
2017-10-15T18:39:16.995Z,8.43
2017-10-15T18:41:45.879Z,15.10
2017-10-15T18:44:14.740Z,15.60
2017-10-15T18:46:43.622Z,27.73
2017-10-15T18:49:12.493Z,8.00
2017-10-15T18:51:41.366Z,6.70
2017-10-15T18:54:10.244Z,6.40
2017-10-15T18:56:39.099Z,6.90
2017-10-15T18:59:07.971Z,6.00
2017-10-15T19:01:36.838Z,6.83
2017-10-15T19:04:05.706Z,6.27
2017-10-15T19:06:34.557Z,8.70
2017-10-15T19:09:03.557Z,6.63
2017-10-15T19:11:32.402Z,7.43
2017-10-15T19:14:01.270Z,5.73
2017-10-15T19:16:30.164Z,16.03
2017-10-15T19:18:59.036Z,7.80
2017-10-15T19:21:27.932Z,5.73
2017-10-15T19:23:56.789Z,16.13
2017-10-15T19:26:25.693Z,7.70
2017-10-15T19:28:54.538Z,5.90
2017-10-15T19:31:23.390Z,5.90
2017-10-15T19:33:52.247Z,5.40
2017-10-15T19:36:21.093Z,5.30
2017-10-15T19:38:49.979Z,5.93
2017-10-15T19:41:18.872Z,5.97
2017-10-15T19:43:47.760Z,6.90
2017-10-15T19:46:16.610Z,7.40
2017-10-15T19:48:45.459Z,5.27
2017-10-15T19:51:14.330Z,5.50
2017-10-15T19:53:43.201Z,6.43
2017-10-15T19:56:12.124Z,7.73
2017-10-15T19:58:40.977Z,6.20
2017-10-15T20:01:09.833Z,6.73
2017-10-15T20:03:38.697Z,6.23
2017-10-15T20:06:07.543Z,14.57
2017-10-15T20:08:36.446Z,7.50
2017-10-15T20:11:05.367Z,8.00
2017-10-15T20:13:34.233Z,9.50
2017-10-15T20:16:03.123Z,7.67
2017-10-15T20:18:31.978Z,6.60
2017-10-15T20:21:01.046Z,6.50
2017-10-15T20:23:29.902Z,6.47
2017-10-15T20:25:58.786Z,6.40
2017-10-15T20:28:27.642Z,5.10
2017-10-15T20:30:56.484Z,4.60
2017-10-15T20:33:25.414Z,22.17
2017-10-15T20:35:54.272Z,13.03
2017-10-15T20:38:23.118Z,5.00
2017-10-15T20:40:51.982Z,5.50
2017-10-15T20:43:20.843Z,4.57
2017-10-15T20:45:49.722Z,5.17
2017-10-15T20:48:18.570Z,4.80
2017-10-15T20:50:47.418Z,6.07
2017-10-15T20:53:16.289Z,5.70
2017-10-15T20:55:45.146Z,5.60
2017-10-15T20:58:14.175Z,7.63
2017-10-15T21:00:43.049Z,7.60
2017-10-15T21:03:11.901Z,5.90
2017-10-15T21:05:40.775Z,4.53
2017-10-15T21:08:09.627Z,4.87
2017-10-15T21:10:38.514Z,4.90
2017-10-15T21:13:07.417Z,6.30
2017-10-15T21:15:36.322Z,5.30
2017-10-15T21:18:05.171Z,5.80
2017-10-15T21:20:34.027Z,5.10
2017-10-15T21:23:02.953Z,5.03
2017-10-15T21:25:31.810Z,5.17
2017-10-15T21:28:00.679Z,8.20
2017-10-15T21:30:29.531Z,6.73
2017-10-15T21:32:58.404Z,6.13
2017-10-15T21:35:27.248Z,6.13
2017-10-15T21:37:56.109Z,5.97
2017-10-15T21:40:24.967Z,5.80
2017-10-15T21:42:53.854Z,7.73
2017-10-15T21:45:22.759Z,8.77
2017-10-15T21:47:51.614Z,6.83
2017-10-15T21:50:20.469Z,6.60
2017-10-15T21:52:49.348Z,6.23
2017-10-15T21:55:18.201Z,6.13
2017-10-15T21:57:47.095Z,5.37
2017-10-15T22:00:15.950Z,6.13
2017-10-15T22:02:44.794Z,5.90
2017-10-15T22:05:13.681Z,7.60
2017-10-15T22:07:42.540Z,7.00
2017-10-15T22:10:11.418Z,7.37
2017-10-15T22:12:40.286Z,6.53
2017-10-15T22:15:09.337Z,8.00
2017-10-15T22:17:38.214Z,6.40
2017-10-15T22:20:07.053Z,6.03
2017-10-15T22:22:35.912Z,7.10
2017-10-15T22:25:04.783Z,6.63
2017-10-15T22:27:33.672Z,8.27
2017-10-15T22:30:02.519Z,7.17
2017-10-15T22:32:31.420Z,6.77
2017-10-15T22:35:00.275Z,6.53
2017-10-15T22:37:29.124Z,7.03
2017-10-15T22:39:58.008Z,6.97
2017-10-15T22:42:26.858Z,6.90
2017-10-15T22:44:55.755Z,6.20
2017-10-15T22:47:24.683Z,7.10
2017-10-15T22:49:53.538Z,6.83
2017-10-15T22:52:22.454Z,5.43
2017-10-15T22:54:51.297Z,6.20
2017-10-15T22:57:20.216Z,5.70
2017-10-15T22:59:49.078Z,5.50
2017-10-15T23:02:17.935Z,9.43
2017-10-15T23:04:46.839Z,14.17
2017-10-15T23:07:15.711Z,7.70
2017-10-15T23:09:44.600Z,6.37
2017-10-15T23:12:13.462Z,5.40
2017-10-15T23:14:42.330Z,4.37
2017-10-15T23:17:11.199Z,4.43
2017-10-15T23:19:40.072Z,3.80
2017-10-15T23:22:08.965Z,3.20
2017-10-15T23:24:37.820Z,2.80
2017-10-15T23:27:06.683Z,2.90
2017-10-15T23:29:35.549Z,2.93
2017-10-15T23:32:04.419Z,2.77
2017-10-15T23:34:33.282Z,3.10
2017-10-15T23:37:02.698Z,3.70
2017-10-15T23:39:31.604Z,3.33
2017-10-15T23:42:00.454Z,3.33
2017-10-15T23:44:29.313Z,3.13
2017-10-15T23:46:58.177Z,3.97
2017-10-15T23:49:27.042Z,4.17
2017-10-15T23:51:55.925Z,4.30
2017-10-15T23:54:24.795Z,3.50
2017-10-15T23:56:53.641Z,3.93
2017-10-15T23:59:22.508Z,4.17
